Time;durP1;ratioP1;P1;durP2;ratioP2;P2;SDS_P1;SDS_P2;PMS_P1;PMS_P2;Temp;Humidity;BMP_temperature;BMP_pressure;BME280_temperature;BME280_humidity;BME280_pressure;Samples;Min_cycle;Max_cycle;Signal;HPM_P1;HPM_P2
2022/12/15 00:40:37;;;;;;;30.42;14.88;;;;;;;-0.36;100.00;99323.19;5015469;28;20445;-69
2022/12/15 00:43:02;;;;;;;31.92;15.80;;;;;;;-0.37;100.00;99323.44;4999053;28;20034;-69
2022/12/15 00:48:12;;;;;;;32.45;15.95;;;;;;;-0.39;100.00;99310.06;5001557;28;20036;-69
2022/12/15 00:50:53;;;;;;;35.17;16.17;;;;;;;-0.38;100.00;99303.50;5015373;28;20033;-69
2022/12/15 01:20:39;;;;;;;38.88;20.60;;;;;;;-0.48;100.00;99287.00;5052759;28;20187;-69
2022/12/15 01:23:05;;;;;;;41.92;21.17;;;;;;;-0.51;100.00;99284.78;5051213;28;20037;-69
2022/12/15 01:25:30;;;;;;;39.42;20.40;;;;;;;-0.50;100.00;99280.97;5013568;28;20028;-69
2022/12/15 01:27:55;;;;;;;41.10;20.08;;;;;;;-0.52;100.00;99269.50;4998468;28;20394;-70
2022/12/15 01:30:22;;;;;;;43.70;20.95;;;;;;;-0.51;100.00;99268.41;4998068;28;20037;-69
2022/12/15 01:32:48;;;;;;;39.03;19.80;;;;;;;-0.52;100.00;99261.31;4998757;28;20030;-69
2022/12/15 01:35:14;;;;;;;41.92;20.70;;;;;;;-0.52;100.00;99266.75;5014619;28;20085;-69
2022/12/15 01:37:39;;;;;;;45.67;20.58;;;;;;;-0.55;100.00;99265.38;4998418;28;20085;-69
2022/12/15 01:42:50;;;;;;;41.83;20.10;;;;;;;-0.56;100.00;99273.78;5014910;28;20041;-69
2022/12/15 01:45:28;;;;;;;41.50;21.33;;;;;;;-0.56;100.00;99276.50;4998203;28;20394;-69
2022/12/15 01:48:04;;;;;;;42.35;20.98;;;;;;;-0.59;100.00;99275.09;5015780;28;20394;-69
2022/12/15 01:50:30;;;;;;;43.03;22.15;;;;;;;-0.58;100.00;99265.06;4999379;28;20034;-69
2022/12/15 01:52:55;;;;;;;41.90;20.98;;;;;;;-0.59;100.00;99261.47;4996982;28;20148;-69
2022/12/15 01:55:22;;;;;;;43.20;21.17;;;;;;;-0.60;100.00;99248.09;5014503;28;20038;-69
2022/12/15 01:57:47;;;;;;;43.65;19.65;;;;;;;-0.58;100.00;99263.13;4981989;28;20033;-69
2022/12/15 02:00:13;;;;;;;38.20;19.30;;;;;;;-0.58;100.00;99275.97;5014250;28;20030;-69
2022/12/15 02:02:39;;;;;;;41.15;20.73;;;;;;;-0.57;100.00;99281.16;5013470;28;20040;-69
2022/12/15 02:05:05;;;;;;;40.25;19.60;;;;;;;-0.55;100.00;99289.09;5008481;28;20017;-69
2022/12/15 02:07:30;;;;;;;44.38;21.05;;;;;;;-0.56;100.00;99293.69;5008419;28;20033;-69
2022/12/15 02:09:58;;;;;;;41.42;21.40;;;;;;;-0.56;100.00;99299.16;5017798;28;20037;-69
2022/12/15 02:12:23;;;;;;;37.00;18.67;;;;;;;-0.54;100.00;99315.28;5031695;28;20029;-69
2022/12/15 02:15:10;;;;;;;41.13;21.30;;;;;;;-0.57;100.00;99318.50;5026593;28;20033;-69
2022/12/15 02:18:02;;;;;;;40.78;20.52;;;;;;;-0.55;100.00;99308.19;5003457;28;20030;-69
2022/12/15 02:20:33;;;;;;;37.70;20.00;;;;;;;-0.52;100.00;99302.22;5000923;28;20026;-69
2022/12/15 02:23:26;;;;;;;42.35;19.75;;;;;;;-0.54;100.00;99301.63;5001621;28;20417;-69
2022/12/15 02:26:22;;;;;;;43.70;21.80;;;;;;;-0.54;100.00;99304.38;5017843;28;20053;-69
2022/12/15 02:29:22;;;;;;;42.88;22.50;;;;;;;-0.56;100.00;99312.78;5050505;28;20113;-69
2022/12/15 02:32:00;;;;;;;44.90;21.77;;;;;;;-0.57;100.00;99304.88;5008149;28;20053;-69
2022/12/15 02:35:05;;;;;;;42.08;20.75;;;;;;;-0.53;100.00;99319.63;5054747;28;20029;-69
2022/12/15 02:37:32;;;;;;;43.08;22.23;;;;;;;-0.58;100.00;99322.31;5004608;28;20091;-69
2022/12/15 02:39:57;;;;;;;42.40;21.30;;;;;;;-0.55;100.00;99327.28;5031154;28;20033;-69
2022/12/15 02:42:23;;;;;;;43.83;22.33;;;;;;;-0.55;100.00;99321.81;5017614;28;20033;-69
2022/12/15 02:44:55;;;;;;;42.97;22.30;;;;;;;-0.53;100.00;99325.09;5017466;28;20045;-69
2022/12/15 02:47:30;;;;;;;45.83;23.25;;;;;;;-0.54;100.00;99323.47;5017301;28;20037;-69
2022/12/15 02:50:05;;;;;;;41.72;22.27;;;;;;;-0.56;100.00;99304.59;5018727;28;20037;-69
2022/12/15 02:52:36;;;;;;;39.80;21.38;;;;;;;-0.57;100.00;99305.69;5017253;28;20032;-69
2022/12/15 02:55:02;;;;;;;40.50;21.80;;;;;;;-0.57;100.00;99302.97;5016749;28;20038;-69
2022/12/15 02:57:36;;;;;;;45.58;22.00;;;;;;;-0.54;100.00;99310.63;5042401;28;21349;-69
2022/12/15 03:00:05;;;;;;;39.70;21.15;;;;;;;-0.57;100.00;99318.50;5001296;28;20426;-69
2022/12/15 03:02:31;;;;;;;37.70;20.10;;;;;;;-0.56;100.00;99331.06;5000671;28;20046;-69
2022/12/15 03:04:57;;;;;;;44.38;21.60;;;;;;;-0.55;100.00;99332.72;5000950;28;20442;-69
2022/12/15 03:07:22;;;;;;;40.75;21.83;;;;;;;-0.54;100.00;99331.63;5003682;28;20053;-69
2022/12/15 03:09:48;;;;;;;40.63;21.50;;;;;;;-0.52;100.00;99326.78;5004283;28;20033;-69
2022/12/15 03:12:13;;;;;;;40.42;20.88;;;;;;;-0.52;100.00;99322.13;5018819;28;20030;-69
2022/12/15 03:14:39;;;;;;;41.95;20.48;;;;;;;-0.50;100.00;99330.91;5000432;28;20040;-69
2022/12/15 03:17:06;;;;;;;38.67;20.60;;;;;;;-0.49;100.00;99329.00;5000434;28;20489;-69
2022/12/15 03:19:32;;;;;;;38.95;19.33;;;;;;;-0.49;100.00;99323.53;5011068;28;20033;-69
2022/12/15 03:21:58;;;;;;;39.45;19.20;;;;;;;-0.50;100.00;99324.63;5014708;28;20100;-70
2022/12/15 03:24:23;;;;;;;40.67;19.20;;;;;;;-0.51;100.00;99329.22;5016770;28;20029;-69
2022/12/15 03:26:49;;;;;;;34.40;18.60;;;;;;;-0.52;100.00;99333.03;5000325;28;20026;-69
2022/12/15 03:29:16;;;;;;;39.67;19.10;;;;;;;-0.52;100.00;99337.69;4999954;28;20089;-69
2022/12/15 03:31:41;;;;;;;33.60;18.35;;;;;;;-0.55;100.00;99327.28;5012039;28;20390;-69
2022/12/15 03:34:07;;;;;;;37.15;18.38;;;;;;;-0.54;100.00;99318.00;5052884;28;20083;-69
2022/12/15 03:36:32;;;;;;;31.85;16.65;;;;;;;-0.55;100.00;99319.91;5036026;28;20048;-69
2022/12/15 03:38:58;;;;;;;32.58;17.40;;;;;;;-0.57;100.00;99318.50;5019816;28;20033;-69
2022/12/15 03:41:23;;;;;;;30.73;15.30;;;;;;;-0.55;100.00;99316.38;5001809;28;20498;-69
2022/12/15 03:43:49;;;;;;;31.98;15.57;;;;;;;-0.57;100.00;99318.50;4994176;28;20036;-69
2022/12/15 03:46:14;;;;;;;28.50;14.48;;;;;;;-0.59;100.00;99309.75;5035829;28;20025;-69
2022/12/15 03:48:41;;;;;;;34.13;15.88;;;;;;;-0.60;100.00;99311.66;4998019;28;20068;-69
2022/12/15 03:51:07;;;;;;;25.45;13.77;;;;;;;-0.58;100.00;99311.41;5026983;28;20034;-69
2022/12/15 03:53:32;;;;;;;25.02;13.05;;;;;;;-0.59;100.00;99296.09;5014633;28;20037;-69
2022/12/15 03:55:58;;;;;;;23.98;12.23;;;;;;;-0.60;100.00;99291.75;4997264;28;20026;-69
2022/12/15 03:58:23;;;;;;;24.00;13.10;;;;;;;-0.60;100.00;99297.19;4999324;28;20030;-69
2022/12/15 04:00:49;;;;;;;23.95;12.23;;;;;;;-0.64;100.00;99305.06;5032401;28;20034;-69
2022/12/15 04:03:14;;;;;;;21.13;11.63;;;;;;;-0.62;100.00;99307.53;5015930;28;20037;-69
2022/12/15 04:05:40;;;;;;;22.73;12.65;;;;;;;-0.61;100.00;99298.25;5018436;28;20038;-69
2022/12/15 04:08:05;;;;;;;24.40;10.98;;;;;;;-0.64;100.00;99298.75;5009060;28;20034;-69
2022/12/15 04:10:32;;;;;;;21.65;10.43;;;;;;;-0.66;100.00;99303.66;4999801;28;20026;-69
2022/12/15 04:12:59;;;;;;;22.50;10.88;;;;;;;-0.64;100.00;99304.22;5015988;28;20113;-69
2022/12/15 04:15:24;;;;;;;20.58;10.90;;;;;;;-0.66;100.00;99295.47;4999203;28;20041;-69
2022/12/15 04:17:50;;;;;;;17.10;10.07;;;;;;;-0.66;100.00;99303.66;4999676;28;20108;-69
2022/12/15 04:20:16;;;;;;;18.83;9.63;;;;;;;-0.63;100.00;99305.88;4999650;28;20391;-69
2022/12/15 04:22:42;;;;;;;21.70;11.27;;;;;;;-0.67;100.00;99319.16;4999433;28;20085;-69
2022/12/15 05:33:38;;;;;;;19.23;9.57;;;;;;;-0.76;100.00;99328.84;5033752;28;20056;-69
2022/12/15 05:36:04;;;;;;;19.30;10.20;;;;;;;-0.77;100.00;99332.66;5031036;28;20050;-69
2022/12/15 05:38:29;;;;;;;21.23;10.93;;;;;;;-0.77;100.00;99328.03;4998419;28;20088;-69
2022/12/15 05:40:58;;;;;;;22.13;10.68;;;;;;;-0.77;100.00;99329.94;4995252;28;20489;-69
2022/12/15 05:43:23;;;;;;;18.15;10.10;;;;;;;-0.78;100.00;99323.66;5006818;28;20037;-69
2022/12/15 05:45:49;;;;;;;19.85;10.30;;;;;;;-0.81;100.00;99317.84;4998429;28;20486;-69
2022/12/15 05:48:14;;;;;;;19.98;10.75;;;;;;;-0.82;100.00;99313.50;4998911;28;20041;-69
2022/12/15 05:50:40;;;;;;;19.48;9.70;;;;;;;-0.82;100.00;99319.75;4998199;28;20033;-69
2022/12/15 05:53:05;;;;;;;20.35;10.18;;;;;;;-0.83;100.00;99312.66;5014553;28;20045;-69
2022/12/15 05:55:31;;;;;;;20.40;10.88;;;;;;;-0.83;100.00;99314.56;5027018;28;20034;-69
2022/12/15 05:57:56;;;;;;;22.50;11.18;;;;;;;-0.82;100.00;99327.13;5054418;28;20022;-69
2022/12/15 06:00:22;;;;;;;19.90;10.95;;;;;;;-0.86;100.00;99324.06;5005057;28;20036;-69
2022/12/15 06:02:47;;;;;;;22.15;11.70;;;;;;;-0.83;100.00;99326.31;4999834;28;20036;-69
2022/12/15 06:05:13;;;;;;;18.75;10.30;;;;;;;-0.85;100.00;99331.16;5004031;28;20433;-70
2022/12/15 06:07:38;;;;;;;17.75;10.27;;;;;;;-0.79;100.00;99334.81;5000921;28;20418;-69
2022/12/15 06:10:04;;;;;;;19.75;10.75;;;;;;;-0.82;100.00;99333.38;5001970;28;20026;-69
2022/12/15 06:12:30;;;;;;;18.70;9.93;;;;;;;-0.80;100.00;99347.59;4985498;28;20101;-69
2022/12/15 06:14:55;;;;;;;17.92;9.60;;;;;;;-0.80;100.00;99346.78;5029601;28;20084;-69
2022/12/15 06:17:21;;;;;;;20.83;10.43;;;;;;;-0.82;100.00;99346.19;5028388;28;20026;-69
2022/12/15 06:19:46;;;;;;;18.92;10.05;;;;;;;-0.80;100.00;99349.50;5001653;28;20032;-69
2022/12/15 06:22:11;;;;;;;18.98;10.15;;;;;;;-0.78;100.00;99347.34;5001705;28;20038;-69
2022/12/15 06:24:37;;;;;;;18.48;8.95;;;;;;;-0.76;100.00;99347.94;5001524;28;20402;-69
2022/12/15 06:27:03;;;;;;;17.92;9.73;;;;;;;-0.79;97.49;99349.25;4985226;28;20021;-69
2022/12/15 06:29:28;;;;;;;19.55;9.60;;;;;;;-0.77;98.84;99352.56;5001260;28;20065;-69
2022/12/15 06:31:54;;;;;;;16.98;9.90;;;;;;;-0.77;97.30;99349.84;5004543;28;20029;-69
2022/12/15 06:34:20;;;;;;;16.52;9.40;;;;;;;-0.76;97.84;99356.09;5021070;28;20436;-69
2022/12/15 06:36:45;;;;;;;18.95;9.40;;;;;;;-0.74;94.80;99359.44;5038435;28;20076;-69
2022/12/15 06:39:12;;;;;;;16.83;9.32;;;;;;;-0.74;98.43;99360.25;5010435;28;20343;-69
2022/12/15 06:41:38;;;;;;;16.65;8.82;;;;;;;-0.72;90.43;99358.09;5017252;28;20033;-68
2022/12/15 06:44:03;;;;;;;14.88;7.80;;;;;;;-0.72;94.24;99366.28;5033750;28;20025;-69
2022/12/15 06:46:29;;;;;;;16.83;9.13;;;;;;;-0.68;91.25;99355.69;5016555;28;20029;-69
2022/12/15 06:48:55;;;;;;;17.23;9.35;;;;;;;-0.70;90.52;99357.84;4985031;28;20084;-68
2022/12/15 06:51:21;;;;;;;17.27;9.68;;;;;;;-0.70;88.90;99358.69;4984923;28;20034;-71
2022/12/15 06:53:52;;;;;;;16.30;9.02;;;;;;;-0.69;90.61;99354.88;4988559;28;20087;-69
2022/12/15 06:56:31;;;;;;;16.10;9.25;;;;;;;-0.68;88.93;99348.34;5013032;28;20030;-69
2022/12/15 06:58:58;;;;;;;18.10;8.85;;;;;;;-0.66;86.86;99339.91;5016819;28;20108;-69
2022/12/15 07:01:24;;;;;;;17.45;9.13;;;;;;;-0.68;87.85;99339.34;5009503;28;20116;-69
2022/12/15 07:03:50;;;;;;;17.60;8.85;;;;;;;-0.68;90.04;99345.59;4990502;28;20096;-69
2022/12/15 07:06:16;;;;;;;17.42;8.70;;;;;;;-0.64;85.28;99345.09;5000654;28;20494;-69
2022/12/15 07:08:42;;;;;;;15.95;8.98;;;;;;;-0.67;87.32;99343.69;5000565;28;20104;-69
2022/12/15 07:11:09;;;;;;;15.38;8.68;;;;;;;-0.66;90.61;99344.56;5017110;28;20037;-69
2022/12/15 07:13:35;;;;;;;18.20;9.10;;;;;;;-0.65;90.15;99348.91;5000262;28;20080;-69
2022/12/15 07:16:01;;;;;;;16.05;8.45;;;;;;;-0.65;88.20;99343.47;5000576;28;20038;-69
2022/12/15 07:18:27;;;;;;;16.42;8.73;;;;;;;-0.65;85.56;99344.28;4984378;28;20101;-69
2022/12/15 07:20:52;;;;;;;14.73;8.25;;;;;;;-0.61;81.85;99344.59;4984824;28;20033;-71
2022/12/15 07:23:17;;;;;;;16.27;9.07;;;;;;;-0.62;83.05;99348.41;5000659;28;20064;-69
2022/12/15 07:25:43;;;;;;;16.65;8.27;;;;;;;-0.60;81.79;99352.56;5016760;28;20545;-69
2022/12/15 07:28:09;;;;;;;16.42;8.43;;;;;;;-0.59;80.10;99347.91;5016484;28;20038;-69
2022/12/15 07:30:34;;;;;;;16.48;9.73;;;;;;;-0.57;86.06;99351.22;5000418;28;20029;-69
2022/12/15 07:33:00;;;;;;;16.45;8.73;;;;;;;-0.58;80.15;99352.31;4968161;28;20033;-69
2022/12/15 07:35:25;;;;;;;14.52;8.07;;;;;;;-0.58;81.01;99360.50;5000184;28;20030;-70
2022/12/15 07:37:51;;;;;;;14.98;7.70;;;;;;;-0.57;76.79;99362.13;5000071;28;20115;-70
2022/12/15 07:40:16;;;;;;;15.27;8.45;;;;;;;-0.55;77.53;99370.91;5016411;28;20026;-70
2022/12/15 07:42:42;;;;;;;14.07;8.43;;;;;;;-0.56;81.00;99377.41;5000077;28;20498;-69
2022/12/15 07:45:08;;;;;;;15.07;7.97;;;;;;;-0.56;82.56;99391.06;4983763;28;20034;-69
2022/12/15 07:47:33;;;;;;;14.73;8.23;;;;;;;-0.54;81.82;99397.91;4982259;28;20487;-69
2022/12/15 07:49:59;;;;;;;13.75;7.88;;;;;;;-0.55;81.28;99395.44;4983896;28;20045;-69
2022/12/15 07:52:24;;;;;;;16.58;8.80;;;;;;;-0.53;82.72;99401.47;4983595;28;20041;-69
2022/12/15 07:54:50;;;;;;;13.25;7.95;;;;;;;-0.54;83.01;99410.72;4999561;28;20030;-69
2022/12/15 07:57:15;;;;;;;15.82;8.15;;;;;;;-0.55;84.37;99420.81;5009022;28;20037;-70
2022/12/15 07:59:41;;;;;;;21.00;8.10;;;;;;;-0.52;80.51;99420.31;4967191;28;20026;-70
2022/12/15 08:02:09;;;;;;;14.35;7.82;;;;;;;-0.52;80.90;99425.78;4999605;28;20156;-69
2022/12/15 08:04:34;;;;;;;16.00;8.05;;;;;;;-0.51;78.43;99429.31;4999124;28;20173;-69
2022/12/15 08:07:00;;;;;;;13.93;7.72;;;;;;;-0.50;78.81;99429.09;4999499;28;20025;-69
2022/12/15 08:09:25;;;;;;;14.95;8.30;;;;;;;-0.48;76.56;99424.19;4999718;28;20065;-70
2022/12/15 08:11:51;;;;;;;16.35;7.82;;;;;;;-0.47;75.29;99425.03;5015703;28;20038;-69
2022/12/15 08:14:16;;;;;;;13.65;7.90;;;;;;;-0.42;75.85;99425.09;4993013;28;20100;-69
2022/12/15 08:16:42;;;;;;;13.15;7.32;;;;;;;-0.41;73.63;99426.78;4967001;28;20030;-69
2022/12/15 08:19:12;;;;;;;17.67;7.80;;;;;;;-0.40;73.64;99422.97;5015807;28;20034;-69
2022/12/15 08:21:41;;;;;;;13.23;7.68;;;;;;;-0.39;72.24;99424.63;4984078;28;20026;-69
2022/12/15 08:24:07;;;;;;;15.05;7.18;;;;;;;-0.38;74.93;99420.00;5010363;28;20033;-70
2022/12/15 08:26:33;;;;;;;13.98;6.97;;;;;;;-0.38;74.68;99415.34;4983018;28;20018;-69
2022/12/15 08:29:04;;;;;;;11.68;6.90;;;;;;;-0.37;76.00;99425.19;4982890;28;20033;-69
2022/12/15 08:31:31;;;;;;;8.43;4.90;;;;;;;-0.36;73.74;99423.28;5010063;28;20116;-69
2022/12/15 08:33:57;;;;;;;13.65;7.00;;;;;;;-0.35;77.11;99427.69;4999017;28;20279;-69
2022/12/15 08:36:23;;;;;;;10.85;6.45;;;;;;;-0.33;76.10;99423.63;4982515;28;20157;-69
2022/12/15 08:38:48;;;;;;;12.98;6.88;;;;;;;-0.30;69.61;99428.59;4999145;28;20042;-69
2022/12/15 08:41:20;;;;;;;12.25;6.55;;;;;;;-0.30;78.30;99422.31;5015410;28;20030;-69
2022/12/15 08:43:46;;;;;;;15.10;7.13;;;;;;;-0.27;74.53;99422.63;4999539;28;20030;-69
2022/12/15 08:46:11;;;;;;;10.43;6.43;;;;;;;-0.24;70.43;99424.84;4982704;28;20034;-69
2022/12/15 08:48:37;;;;;;;12.68;6.80;;;;;;;-0.24;70.01;99434.94;4990103;28;20025;-69
2022/12/15 08:51:03;;;;;;;14.35;7.03;;;;;;;-0.23;70.43;99433.84;5015111;28;20072;-69
2022/12/15 08:53:28;;;;;;;12.73;6.90;;;;;;;-0.18;68.11;99452.22;4998736;28;20136;-69
2022/12/15 08:55:54;;;;;;;11.35;6.35;;;;;;;-0.18;67.68;99458.50;5002047;28;20399;-69
2022/12/15 08:58:19;;;;;;;11.82;6.68;;;;;;;-0.15;69.15;99468.09;4998465;28;20038;-69
2022/12/15 09:00:45;;;;;;;12.63;6.55;;;;;;;-0.10;65.66;99473.63;4998770;28;20034;-69
2022/12/15 09:03:10;;;;;;;10.25;6.07;;;;;;;-0.07;64.15;99475.88;5015122;28;20032;-69
2022/12/15 09:05:36;;;;;;;11.85;6.75;;;;;;;-0.06;69.02;99480.25;4998736;28;20080;-69
2022/12/15 09:08:02;;;;;;;13.85;6.63;;;;;;;-0.01;65.95;99477.59;4982718;28;20034;-70
2022/12/15 09:10:28;;;;;;;11.70;6.68;;;;;;;0.02;63.89;99484.47;4998679;28;20049;-70
2022/12/15 09:12:53;;;;;;;11.82;6.45;;;;;;;0.04;62.62;99477.69;5014887;28;20045;-69
2022/12/15 09:15:19;;;;;;;12.18;6.68;;;;;;;0.10;62.60;99484.03;4983330;28;20033;-69
2022/12/15 09:17:45;;;;;;;10.07;5.78;;;;;;;0.12;60.33;99490.91;4986646;28;20406;-69
2022/12/15 09:20:11;;;;;;;10.63;5.90;;;;;;;0.10;63.87;99487.59;4989272;28;20064;-69
2022/12/15 09:22:36;;;;;;;10.57;6.07;;;;;;;0.14;62.05;99499.69;5006228;28;20374;-70
2022/12/15 09:25:03;;;;;;;10.50;5.90;;;;;;;0.18;63.90;99502.72;5019979;28;20056;-69
2022/12/15 09:27:31;;;;;;;10.13;5.63;;;;;;;0.17;66.86;99496.44;5006263;28;20026;-70
2022/12/15 09:29:56;;;;;;;10.30;5.80;;;;;;;0.26;64.26;99490.56;5035560;28;20030;-69
2022/12/15 09:32:22;;;;;;;10.25;5.40;;;;;;;0.27;62.19;99495.75;5006663;28;20048;-69
2022/12/15 09:34:50;;;;;;;10.68;5.90;;;;;;;0.32;60.50;99484.09;5006793;28;20029;-69
2022/12/15 09:37:15;;;;;;;11.45;5.80;;;;;;;0.32;60.11;99484.09;4990028;28;20404;-69
2022/12/15 09:39:41;;;;;;;11.40;5.68;;;;;;;0.35;58.78;99484.41;4990282;28;20088;-69
2022/12/15 09:42:22;;;;;;;9.95;5.63;;;;;;;0.38;59.00;99477.59;5006459;28;20029;-69
2022/12/15 09:44:47;;;;;;;10.75;6.20;;;;;;;0.35;64.34;99481.66;5007415;28;20071;-69
2022/12/15 09:47:21;;;;;;;10.07;5.15;;;;;;;0.38;63.09;99485.78;5003135;28;20482;-69
2022/12/15 09:49:52;;;;;;;8.88;5.25;;;;;;;0.45;60.38;99486.47;4986606;28;20037;-70
2022/12/15 09:52:24;;;;;;;9.73;5.40;;;;;;;0.49;63.38;99497.69;5018547;28;20043;-69
2022/12/15 09:54:50;;;;;;;9.43;5.43;;;;;;;0.55;61.78;99494.78;5002213;28;20474;-69
2022/12/15 09:57:29;;;;;;;10.30;5.82;;;;;;;0.58;64.83;99490.69;4998001;28;20041;-69
2022/12/15 10:00:11;;;;;;;11.05;4.97;;;;;;;0.65;61.08;99480.44;5001977;28;20572;-69
2022/12/15 10:03:08;;;;;;;10.48;5.88;;;;;;;0.71;62.90;99493.06;4998508;28;20034;-69
2022/12/15 10:05:52;;;;;;;12.35;6.22;;;;;;;0.75;63.03;99491.47;5018467;28;20101;-69
2022/12/15 10:08:18;;;;;;;11.80;5.72;;;;;;;0.81;62.79;99482.28;5019531;28;20033;-69
2022/12/15 10:10:57;;;;;;;10.13;5.63;;;;;;;0.85;62.48;99482.56;4986037;28;20029;-69
2022/12/15 10:13:26;;;;;;;11.40;5.72;;;;;;;0.91;63.10;99470.63;5017784;28;20030;-69
2022/12/15 10:16:00;;;;;;;11.55;5.47;;;;;;;0.98;61.24;99470.44;4985961;28;20105;-69
2022/12/15 10:18:38;;;;;;;10.80;5.90;;;;;;;0.99;65.14;99472.91;5001876;28;20095;-69
2022/12/15 10:21:04;;;;;;;9.63;5.55;;;;;;;1.06;64.19;99476.28;4969974;28;20033;-69
2022/12/15 10:23:31;;;;;;;12.45;6.00;;;;;;;1.08;64.69;99476.81;4985401;28;20033;-69
2022/12/15 10:26:19;;;;;;;10.48;6.30;;;;;;;1.14;66.32;99480.44;5001461;28;20065;-69
2022/12/15 10:29:19;;;;;;;11.82;6.47;;;;;;;1.22;66.06;99466.28;5013368;28;20045;-69
2022/12/15 10:31:53;;;;;;;12.00;6.28;;;;;;;1.28;63.43;99458.97;5049065;28;20061;-69
2022/12/15 10:34:31;;;;;;;11.50;6.38;;;;;;;1.30;62.48;99467.75;4985324;28;20030;-69
2022/12/15 10:36:56;;;;;;;13.85;7.10;;;;;;;1.37;63.80;99454.69;4985387;28;20054;-69
2022/12/15 10:39:22;;;;;;;10.32;6.05;;;;;;;1.38;64.76;99444.56;4968830;28;20033;-69
2022/12/15 10:42:10;;;;;;;15.00;6.32;;;;;;;1.41;62.50;99453.06;4968944;28;20053;-69
2022/12/15 10:44:36;;;;;;;12.48;6.65;;;;;;;1.41;62.82;99463.22;5018558;28;20030;-69
2022/12/15 10:47:30;;;;;;;13.75;7.53;;;;;;;1.42;65.64;99454.75;5001257;28;20504;-70
2022/12/15 10:50:11;;;;;;;14.50;7.28;;;;;;;1.42;64.96;99452.00;5015928;28;20049;-69
2022/12/15 10:52:37;;;;;;;13.57;7.45;;;;;;;1.43;66.05;99453.66;4998710;28;20084;-69
2022/12/15 10:55:25;;;;;;;12.98;7.03;;;;;;;1.45;64.64;99446.03;4985665;28;20033;-69
2022/12/15 10:58:01;;;;;;;12.65;6.80;;;;;;;1.42;67.81;99454.75;5023943;28;20057;-69
2022/12/15 11:00:28;;;;;;;11.85;5.63;;;;;;;1.42;63.89;99448.44;5005374;28;20038;-69
2022/12/15 11:02:54;;;;;;;10.38;5.90;;;;;;;1.43;62.64;99448.19;4996991;28;20120;-69
2022/12/15 11:05:20;;;;;;;11.85;6.18;;;;;;;1.45;63.50;99448.75;5014784;28;20042;-69
2022/12/15 11:07:45;;;;;;;11.45;5.80;;;;;;;1.40;60.70;99435.03;5020011;28;20041;-69
2022/12/15 11:10:17;;;;;;;12.30;5.88;;;;;;;1.38;65.01;99442.66;5017586;28;20510;-69
2022/12/15 11:12:52;;;;;;;9.15;5.55;;;;;;;1.38;63.46;99441.84;5031206;28;20034;-69
2022/12/15 11:15:23;;;;;;;8.82;4.97;;;;;;;1.39;61.36;99446.22;5033179;28;20103;-69
2022/12/15 11:18:12;;;;;;;9.52;5.35;;;;;;;1.40;63.80;99440.50;5036417;28;20034;-69
2022/12/15 11:20:41;;;;;;;8.52;5.00;;;;;;;1.39;64.26;99444.28;5014815;28;20037;-69
2022/12/15 11:23:15;;;;;;;9.98;5.55;;;;;;;1.42;63.50;99434.75;5047300;28;20053;-69
2022/12/15 11:25:42;;;;;;;8.98;4.40;;;;;;;1.41;62.31;99424.91;5029773;28;20026;-70
2022/12/15 11:28:42;;;;;;;8.77;4.72;;;;;;;1.44;57.90;99425.19;5010714;28;20727;-69
2022/12/15 11:31:21;;;;;;;9.68;4.70;;;;;;;1.44;57.64;99405.22;5001544;28;20449;-69
2022/12/15 11:33:47;;;;;;;8.88;4.80;;;;;;;1.45;58.41;99402.25;5017533;28;20033;-69
2022/12/15 11:36:27;;;;;;;8.55;5.00;;;;;;;1.45;56.22;99404.97;5014527;28;20050;-69
2022/12/15 11:38:57;;;;;;;7.95;4.55;;;;;;;1.50;56.55;99393.22;5050679;28;20032;-69
2022/12/15 11:41:26;;;;;;;7.75;4.32;;;;;;;1.53;56.67;99389.97;4982225;28;20042;-69
2022/12/15 11:43:55;;;;;;;8.05;4.65;;;;;;;1.58;55.56;99389.19;5017564;28;20033;-69
2022/12/15 11:46:26;;;;;;;9.40;4.40;;;;;;;1.58;54.20;99383.72;5028398;28;20108;-69
2022/12/15 11:49:04;;;;;;;10.07;4.95;;;;;;;1.58;53.13;99380.97;4993385;28;20026;-70
2022/12/15 11:51:52;;;;;;;8.98;4.72;;;;;;;1.60;53.86;99381.56;5016579;28;20060;-70
2022/12/15 11:54:28;;;;;;;7.15;4.45;;;;;;;1.59;54.57;99388.09;4987683;28;20021;-70
2022/12/15 11:57:26;;;;;;;8.48;4.68;;;;;;;1.59;55.31;99388.09;5011525;28;20513;-69
2022/12/15 12:00:20;;;;;;;8.85;4.40;;;;;;;1.61;54.08;99385.94;4978030;28;20066;-69
2022/12/15 12:02:50;;;;;;;8.18;4.55;;;;;;;1.61;56.33;99385.94;5027625;28;20505;-69
2022/12/15 12:05:30;;;;;;;8.18;4.45;;;;;;;1.65;55.79;99371.47;5028901;28;20082;-70
2022/12/15 12:08:18;;;;;;;7.85;3.95;;;;;;;1.69;54.85;99369.84;5032164;28;20512;-69
2022/12/15 12:11:05;;;;;;;10.40;4.20;;;;;;;1.70;53.55;99362.44;5036304;28;20029;-69
2022/12/15 12:13:42;;;;;;;7.50;3.97;;;;;;;1.71;53.74;99359.44;5032777;28;20113;-69
2022/12/15 12:16:26;;;;;;;7.10;4.22;;;;;;;1.74;53.81;99352.63;5031480;28;20046;-69
2022/12/15 12:19:12;;;;;;;8.77;4.38;;;;;;;1.76;52.29;99353.19;5037843;28;20163;-70
2022/12/15 12:21:50;;;;;;;6.20;3.88;;;;;;;1.78;53.93;99354.59;5032631;28;20434;-69
2022/12/15 12:24:20;;;;;;;8.00;4.13;;;;;;;1.84;53.86;99336.28;5012777;28;20068;-69
2022/12/15 12:27:18;;;;;;;6.95;4.35;;;;;;;1.86;54.25;99355.97;5007014;28;20044;-69
2022/12/15 12:29:50;;;;;;;7.38;4.32;;;;;;;1.90;54.42;99346.16;4987629;28;20049;-69
2022/12/15 12:32:56;;;;;;;8.13;4.40;;;;;;;1.92;53.68;99344.00;5010828;28;20037;-69
2022/12/15 12:35:40;;;;;;;9.85;4.72;;;;;;;1.96;53.07;99338.78;5052122;28;20428;-69
2022/12/15 12:38:08;;;;;;;7.55;4.40;;;;;;;1.99;52.19;99343.75;5030832;28;20163;-69
2022/12/15 12:40:42;;;;;;;6.95;4.53;;;;;;;2.03;51.15;99344.03;5016696;28;20043;-72
2022/12/15 12:43:08;;;;;;;8.15;5.03;;;;;;;2.06;52.10;99348.97;5034077;28;20041;-74
2022/12/15 12:45:42;;;;;;;7.72;4.60;;;;;;;2.08;51.13;99353.09;5034870;28;20028;-71
2022/12/15 12:48:31;;;;;;;8.35;4.55;;;;;;;2.11;50.81;99355.28;5021732;28;20061;-71
2022/12/15 12:51:30;;;;;;;9.13;5.03;;;;;;;2.11;50.01;99347.06;5046985;28;20033;-72
2022/12/15 12:53:56;;;;;;;7.15;3.85;;;;;;;2.17;48.48;99342.44;5012819;28;20036;-71
2022/12/15 12:56:31;;;;;;;8.38;4.55;;;;;;;2.15;49.01;99347.38;4990668;28;20030;-71
2022/12/15 12:58:57;;;;;;;7.28;4.03;;;;;;;2.21;46.69;99347.13;5030848;28;20034;-71
2022/12/15 13:01:30;;;;;;;9.07;4.32;;;;;;;2.17;46.36;99340.53;5032956;28;20492;-71
2022/12/15 13:04:12;;;;;;;7.43;4.30;;;;;;;2.18;49.15;99344.09;4990245;28;20026;-71
2022/12/15 13:06:38;;;;;;;4.75;3.50;;;;;;;2.22;49.25;99356.16;5033526;28;20018;-71
2022/12/15 13:09:15;;;;;;;7.53;4.25;;;;;;;2.17;48.93;99342.44;5032983;28;20040;-71
2022/12/15 13:11:47;;;;;;;9.65;4.05;;;;;;;2.18;49.28;99347.66;5032907;28;20121;-71
2022/12/15 13:14:19;;;;;;;7.85;4.15;;;;;;;2.17;49.39;99339.69;5024608;28;20493;-71
2022/12/15 13:16:45;;;;;;;9.38;4.60;;;;;;;2.21;48.44;99340.84;5033124;28;20030;-71
2022/12/15 13:19:10;;;;;;;8.68;4.40;;;;;;;2.20;47.08;99340.00;5001500;28;20104;-71
2022/12/15 13:21:42;;;;;;;7.55;4.40;;;;;;;2.18;47.85;99346.84;5005617;28;20394;-71
2022/12/15 13:24:24;;;;;;;7.10;4.15;;;;;;;2.22;46.17;99337.00;5025134;28;20034;-71
2022/12/15 13:26:49;;;;;;;8.25;4.20;;;;;;;2.17;45.64;99336.97;5026227;28;20035;-71
2022/12/15 13:29:15;;;;;;;7.65;4.35;;;;;;;2.15;46.08;99334.50;5008137;28;20034;-71
2022/12/15 13:31:45;;;;;;;8.57;4.95;;;;;;;2.19;47.53;99340.25;4989162;28;20025;-71
2022/12/15 13:34:14;;;;;;;7.95;4.13;;;;;;;2.20;46.08;99339.16;5013613;28;20471;-71
2022/12/15 13:36:40;;;;;;;8.35;4.30;;;;;;;2.21;46.46;99335.34;5033744;28;20081;-71
2022/12/15 13:39:11;;;;;;;9.13;4.50;;;;;;;2.19;47.18;99340.25;5034460;28;20032;-71
2022/12/15 13:41:42;;;;;;;8.27;4.55;;;;;;;2.23;47.62;99341.41;5025764;28;20051;-71
2022/12/15 13:44:19;;;;;;;7.35;4.18;;;;;;;2.27;46.08;99339.75;5036992;28;20029;-71
2022/12/15 13:46:45;;;;;;;7.80;4.47;;;;;;;2.23;46.88;99334.00;5000964;28;20037;-71
2022/12/15 13:49:30;;;;;;;8.07;4.05;;;;;;;2.24;46.26;99348.50;4993998;28;20101;-71
2022/12/15 13:52:20;;;;;;;7.65;4.10;;;;;;;2.22;47.69;99343.28;4993201;28;20030;-71
2022/12/15 13:54:52;;;;;;;7.50;4.10;;;;;;;2.28;46.64;99346.88;5030334;28;20501;-71
2022/12/15 13:57:17;;;;;;;7.20;4.40;;;;;;;2.22;45.83;99342.47;5023045;28;20103;-71
2022/12/15 13:59:51;;;;;;;7.50;4.35;;;;;;;2.23;45.82;99341.41;5016749;28;20061;-71